sensor_id;sensor_type;location;lat;lon;timestamp;temperature;humidity
71254;HTU21D;59019;47.638;18.966;2024-03-02T00:01:23;8.90;111.90
71254;HTU21D;59019;47.638;18.966;2024-03-02T00:03:49;8.85;111.97
71254;HTU21D;59019;47.638;18.966;2024-03-02T00:06:20;8.79;112.00
71254;HTU21D;59019;47.638;18.966;2024-03-02T00:08:46;8.74;112.39
71254;HTU21D;59019;47.638;18.966;2024-03-02T00:11:13;8.72;112.14
71254;HTU21D;59019;47.638;18.966;2024-03-02T00:13:41;8.68;111.54
71254;HTU21D;59019;47.638;18.966;2024-03-02T00:16:07;8.71;112.71
71254;HTU21D;59019;47.638;18.966;2024-03-02T00:18:35;8.73;111.70
71254;HTU21D;59019;47.638;18.966;2024-03-02T00:21:02;8.76;111.24
71254;HTU21D;59019;47.638;18.966;2024-03-02T00:23:32;8.76;110.13
71254;HTU21D;59019;47.638;18.966;2024-03-02T00:25:59;8.73;108.98
71254;HTU21D;59019;47.638;18.966;2024-03-02T00:28:33;8.68;109.01
71254;HTU21D;59019;47.638;18.966;2024-03-02T00:31:06;8.60;109.34
71254;HTU21D;59019;47.638;18.966;2024-03-02T00:33:34;8.60;109.05
71254;HTU21D;59019;47.638;18.966;2024-03-02T00:36:05;8.53;108.97
71254;HTU21D;59019;47.638;18.966;2024-03-02T00:38:33;8.45;108.75
71254;HTU21D;59019;47.638;18.966;2024-03-02T00:41:04;8.41;109.10
71254;HTU21D;59019;47.638;18.966;2024-03-02T00:46:25;8.29;109.42
71254;HTU21D;59019;47.638;18.966;2024-03-02T00:48:53;8.22;109.49
71254;HTU21D;59019;47.638;18.966;2024-03-02T00:51:24;8.04;110.18
71254;HTU21D;59019;47.638;18.966;2024-03-02T00:53:52;8.01;113.61
71254;HTU21D;59019;47.638;18.966;2024-03-02T00:56:19;8.05;115.46
71254;HTU21D;59019;47.638;18.966;2024-03-02T00:58:46;8.05;115.03
71254;HTU21D;59019;47.638;18.966;2024-03-02T01:01:12;8.02;115.10
71254;HTU21D;59019;47.638;18.966;2024-03-02T01:03:39;8.04;114.75
71254;HTU21D;59019;47.638;18.966;2024-03-02T01:06:07;8.07;115.78
71254;HTU21D;59019;47.638;18.966;2024-03-02T01:08:34;7.99;113.90
71254;HTU21D;59019;47.638;18.966;2024-03-02T01:11:01;7.79;115.93
71254;HTU21D;59019;47.638;18.966;2024-03-02T01:13:28;7.86;118.64
71254;HTU21D;59019;47.638;18.966;2024-03-02T01:15:54;7.90;-4.50
71254;HTU21D;59019;47.638;18.966;2024-03-02T01:18:20;7.96;-3.92
71254;HTU21D;59019;47.638;18.966;2024-03-02T01:20:48;8.02;-0.67
71254;HTU21D;59019;47.638;18.966;2024-03-02T01:23:21;8.07;-1.53
71254;HTU21D;59019;47.638;18.966;2024-03-02T01:26:04;8.16;1.08
71254;HTU21D;59019;47.638;18.966;2024-03-02T01:28:30;8.21;1.57
71254;HTU21D;59019;47.638;18.966;2024-03-02T01:30:56;8.23;1.10
71254;HTU21D;59019;47.638;18.966;2024-03-02T01:33:23;8.32;-2.39
71254;HTU21D;59019;47.638;18.966;2024-03-02T01:35:49;8.38;-2.64
71254;HTU21D;59019;47.638;18.966;2024-03-02T01:38:15;8.45;118.21
71254;HTU21D;59019;47.638;18.966;2024-03-02T01:40:42;8.41;115.08
71254;HTU21D;59019;47.638;18.966;2024-03-02T01:43:10;8.45;115.98
71254;HTU21D;59019;47.638;18.966;2024-03-02T01:45:37;8.45;115.32
71254;HTU21D;59019;47.638;18.966;2024-03-02T01:48:07;8.44;116.03
71254;HTU21D;59019;47.638;18.966;2024-03-02T01:50:34;8.39;115.21
71254;HTU21D;59019;47.638;18.966;2024-03-02T01:53:00;8.43;116.52
71254;HTU21D;59019;47.638;18.966;2024-03-02T01:55:28;8.46;115.85
71254;HTU21D;59019;47.638;18.966;2024-03-02T01:57:59;8.49;116.72
71254;HTU21D;59019;47.638;18.966;2024-03-02T02:00:25;8.53;115.73
71254;HTU21D;59019;47.638;18.966;2024-03-02T02:02:52;8.55;113.61
71254;HTU21D;59019;47.638;18.966;2024-03-02T02:05:18;8.60;113.26
71254;HTU21D;59019;47.638;18.966;2024-03-02T02:07:45;8.64;112.65
71254;HTU21D;59019;47.638;18.966;2024-03-02T02:10:11;8.64;111.70
71254;HTU21D;59019;47.638;18.966;2024-03-02T02:12:38;8.64;111.08
71254;HTU21D;59019;47.638;18.966;2024-03-02T02:15:27;8.65;109.61
71254;HTU21D;59019;47.638;18.966;2024-03-02T02:17:57;8.66;108.14
71254;HTU21D;59019;47.638;18.966;2024-03-02T02:20:40;8.66;108.59
71254;HTU21D;59019;47.638;18.966;2024-03-02T02:23:07;8.65;108.39
71254;HTU21D;59019;47.638;18.966;2024-03-02T02:25:36;8.60;108.49
71254;HTU21D;59019;47.638;18.966;2024-03-02T02:28:02;8.57;108.44
71254;HTU21D;59019;47.638;18.966;2024-03-02T02:30:30;8.57;109.17
71254;HTU21D;59019;47.638;18.966;2024-03-02T02:32:59;8.56;109.39
71254;HTU21D;59019;47.638;18.966;2024-03-02T02:35:28;8.53;109.85
71254;HTU21D;59019;47.638;18.966;2024-03-02T02:37:58;8.55;109.06
71254;HTU21D;59019;47.638;18.966;2024-03-02T02:40:25;8.48;109.23
71254;HTU21D;59019;47.638;18.966;2024-03-02T02:42:51;8.42;110.64
71254;HTU21D;59019;47.638;18.966;2024-03-02T02:45:17;8.43;112.08
71254;HTU21D;59019;47.638;18.966;2024-03-02T02:47:44;8.36;110.97
71254;HTU21D;59019;47.638;18.966;2024-03-02T02:50:11;8.34;112.24
71254;HTU21D;59019;47.638;18.966;2024-03-02T02:52:38;8.37;113.37
71254;HTU21D;59019;47.638;18.966;2024-03-02T02:55:07;8.41;113.82
71254;HTU21D;59019;47.638;18.966;2024-03-02T02:57:33;8.45;113.64
71254;HTU21D;59019;47.638;18.966;2024-03-02T03:00:09;8.45;113.86
71254;HTU21D;59019;47.638;18.966;2024-03-02T03:02:42;8.37;113.14
71254;HTU21D;59019;47.638;18.966;2024-03-02T03:05:12;8.37;112.39
71254;HTU21D;59019;47.638;18.966;2024-03-02T03:07:42;8.44;111.90
71254;HTU21D;59019;47.638;18.966;2024-03-02T03:10:08;8.52;112.21
71254;HTU21D;59019;47.638;18.966;2024-03-02T03:12:35;8.58;112.39
71254;HTU21D;59019;47.638;18.966;2024-03-02T03:15:02;8.60;112.09
71254;HTU21D;59019;47.638;18.966;2024-03-02T03:17:30;8.61;111.36
71254;HTU21D;59019;47.638;18.966;2024-03-02T03:19:57;8.60;111.31
71254;HTU21D;59019;47.638;18.966;2024-03-02T03:22:23;8.55;110.84
71254;HTU21D;59019;47.638;18.966;2024-03-02T03:24:49;8.43;109.52
71254;HTU21D;59019;47.638;18.966;2024-03-02T03:27:15;8.34;109.36
71254;HTU21D;59019;47.638;18.966;2024-03-02T03:29:42;8.32;109.18
71254;HTU21D;59019;47.638;18.966;2024-03-02T03:32:08;8.30;109.76
71254;HTU21D;59019;47.638;18.966;2024-03-02T03:34:35;8.35;109.89
71254;HTU21D;59019;47.638;18.966;2024-03-02T03:37:01;8.39;109.64
71254;HTU21D;59019;47.638;18.966;2024-03-02T03:39:28;8.43;109.31
71254;HTU21D;59019;47.638;18.966;2024-03-02T03:41:54;8.42;109.34
71254;HTU21D;59019;47.638;18.966;2024-03-02T03:44:23;8.45;109.01
71254;HTU21D;59019;47.638;18.966;2024-03-02T03:46:50;8.47;108.35
71254;HTU21D;59019;47.638;18.966;2024-03-02T03:49:16;8.47;108.06
71254;HTU21D;59019;47.638;18.966;2024-03-02T03:51:43;8.45;107.97
71254;HTU21D;59019;47.638;18.966;2024-03-02T03:54:09;8.47;108.49
71254;HTU21D;59019;47.638;18.966;2024-03-02T03:56:37;8.45;108.81
71254;HTU21D;59019;47.638;18.966;2024-03-02T03:59:03;8.47;109.03
71254;HTU21D;59019;47.638;18.966;2024-03-02T04:01:30;8.49;109.31
71254;HTU21D;59019;47.638;18.966;2024-03-02T04:03:59;8.51;109.23
71254;HTU21D;59019;47.638;18.966;2024-03-02T04:06:27;8.56;109.17
71254;HTU21D;59019;47.638;18.966;2024-03-02T04:08:53;8.55;109.06
71254;HTU21D;59019;47.638;18.966;2024-03-02T04:11:20;8.58;108.94
71254;HTU21D;59019;47.638;18.966;2024-03-02T04:13:46;8.59;109.00
71254;HTU21D;59019;47.638;18.966;2024-03-02T04:16:12;8.60;109.25
71254;HTU21D;59019;47.638;18.966;2024-03-02T04:18:38;8.63;109.25
71254;HTU21D;59019;47.638;18.966;2024-03-02T04:21:05;8.68;109.18
71254;HTU21D;59019;47.638;18.966;2024-03-02T04:23:35;8.67;109.62
71254;HTU21D;59019;47.638;18.966;2024-03-02T04:26:02;8.68;109.55
71254;HTU21D;59019;47.638;18.966;2024-03-02T04:28:28;8.65;109.06
71254;HTU21D;59019;47.638;18.966;2024-03-02T04:30:54;8.70;109.04
71254;HTU21D;59019;47.638;18.966;2024-03-02T04:33:21;8.66;108.58
71254;HTU21D;59019;47.638;18.966;2024-03-02T04:35:47;8.68;108.41
71254;HTU21D;59019;47.638;18.966;2024-03-02T04:38:14;8.67;108.87
71254;HTU21D;59019;47.638;18.966;2024-03-02T04:40:40;8.66;108.80
71254;HTU21D;59019;47.638;18.966;2024-03-02T04:43:06;8.63;109.61
71254;HTU21D;59019;47.638;18.966;2024-03-02T04:45:36;8.66;109.40
71254;HTU21D;59019;47.638;18.966;2024-03-02T04:48:02;8.67;109.38
71254;HTU21D;59019;47.638;18.966;2024-03-02T04:50:28;8.68;109.15
71254;HTU21D;59019;47.638;18.966;2024-03-02T04:52:55;8.71;109.25
71254;HTU21D;59019;47.638;18.966;2024-03-02T04:55:21;8.64;109.36
71254;HTU21D;59019;47.638;18.966;2024-03-02T04:58:10;8.67;110.58
71254;HTU21D;59019;47.638;18.966;2024-03-02T05:00:36;8.70;110.76
71254;HTU21D;59019;47.638;18.966;2024-03-02T05:03:02;8.71;112.78
71254;HTU21D;59019;47.638;18.966;2024-03-02T05:05:29;8.70;111.90
71254;HTU21D;59019;47.638;18.966;2024-03-02T05:08:00;8.72;115.03
71254;HTU21D;59019;47.638;18.966;2024-03-02T05:10:26;8.73;116.15
71254;HTU21D;59019;47.638;18.966;2024-03-02T05:12:52;8.80;-2.11
71254;HTU21D;59019;47.638;18.966;2024-03-02T05:15:25;8.82;-3.52
71254;HTU21D;59019;47.638;18.966;2024-03-02T05:17:51;8.85;-5.51
71254;HTU21D;59019;47.638;18.966;2024-03-02T05:20:17;8.89;-5.74
71254;HTU21D;59019;47.638;18.966;2024-03-02T05:22:44;8.89;115.29
71254;HTU21D;59019;47.638;18.966;2024-03-02T05:25:10;8.94;112.92
71254;HTU21D;59019;47.638;18.966;2024-03-02T05:27:36;8.93;109.68
71254;HTU21D;59019;47.638;18.966;2024-03-02T05:30:03;8.97;108.16
71254;HTU21D;59019;47.638;18.966;2024-03-02T05:32:33;8.95;107.64
71254;HTU21D;59019;47.638;18.966;2024-03-02T05:34:59;8.93;108.30
71254;HTU21D;59019;47.638;18.966;2024-03-02T05:37:25;8.91;108.45
71254;HTU21D;59019;47.638;18.966;2024-03-02T05:39:51;8.85;108.39
71254;HTU21D;59019;47.638;18.966;2024-03-02T05:42:18;8.81;109.14
71254;HTU21D;59019;47.638;18.966;2024-03-02T05:44:44;8.79;109.63
71254;HTU21D;59019;47.638;18.966;2024-03-02T05:47:11;8.83;109.69
71254;HTU21D;59019;47.638;18.966;2024-03-02T05:49:38;8.87;109.42
71254;HTU21D;59019;47.638;18.966;2024-03-02T05:52:06;8.88;109.43
71254;HTU21D;59019;47.638;18.966;2024-03-02T05:54:35;8.90;110.36
71254;HTU21D;59019;47.638;18.966;2024-03-02T05:57:01;8.92;113.90
71254;HTU21D;59019;47.638;18.966;2024-03-02T05:59:43;8.95;-3.67
71254;HTU21D;59019;47.638;18.966;2024-03-02T06:02:12;8.98;-4.81
71254;HTU21D;59019;47.638;18.966;2024-03-02T06:04:38;9.01;-4.44
71254;HTU21D;59019;47.638;18.966;2024-03-02T06:07:04;9.02;118.73
71254;HTU21D;59019;47.638;18.966;2024-03-02T06:09:31;9.08;117.72
71254;HTU21D;59019;47.638;18.966;2024-03-02T06:11:57;9.07;116.12
71254;HTU21D;59019;47.638;18.966;2024-03-02T06:14:23;9.10;116.86
71254;HTU21D;59019;47.638;18.966;2024-03-02T06:16:50;8.97;111.82
71254;HTU21D;59019;47.638;18.966;2024-03-02T06:19:16;8.95;112.46
71254;HTU21D;59019;47.638;18.966;2024-03-02T06:21:43;8.96;111.45
71254;HTU21D;59019;47.638;18.966;2024-03-02T06:24:10;8.98;113.45
71254;HTU21D;59019;47.638;18.966;2024-03-02T06:26:36;9.02;112.55
71254;HTU21D;59019;47.638;18.966;2024-03-02T06:29:03;9.06;112.34
71254;HTU21D;59019;47.638;18.966;2024-03-02T06:31:30;8.96;111.53
71254;HTU21D;59019;47.638;18.966;2024-03-02T06:33:56;9.01;112.16
71254;HTU21D;59019;47.638;18.966;2024-03-02T06:36:22;8.96;111.74
71254;HTU21D;59019;47.638;18.966;2024-03-02T06:38:49;8.97;113.51
71254;HTU21D;59019;47.638;18.966;2024-03-02T06:41:16;9.04;113.22
71254;HTU21D;59019;47.638;18.966;2024-03-02T06:43:43;9.10;113.77
71254;HTU21D;59019;47.638;18.966;2024-03-02T06:46:09;9.15;114.00
71254;HTU21D;59019;47.638;18.966;2024-03-02T06:48:40;9.19;113.80
71254;HTU21D;59019;47.638;18.966;2024-03-02T06:51:06;9.04;112.06
71254;HTU21D;59019;47.638;18.966;2024-03-02T06:53:33;9.09;113.21
71254;HTU21D;59019;47.638;18.966;2024-03-02T06:55:59;9.18;113.49
71254;HTU21D;59019;47.638;18.966;2024-03-02T06:58:25;9.21;112.56
71254;HTU21D;59019;47.638;18.966;2024-03-02T07:00:52;9.23;115.87
71254;HTU21D;59019;47.638;18.966;2024-03-02T07:03:18;9.33;-3.17
71254;HTU21D;59019;47.638;18.966;2024-03-02T07:05:45;9.41;-1.84
71254;HTU21D;59019;47.638;18.966;2024-03-02T07:08:11;9.49;-0.87
71254;HTU21D;59019;47.638;18.966;2024-03-02T07:10:38;9.40;116.68
71254;HTU21D;59019;47.638;18.966;2024-03-02T07:13:04;9.35;116.14
71254;HTU21D;59019;47.638;18.966;2024-03-02T07:15:31;9.40;116.33
71254;HTU21D;59019;47.638;18.966;2024-03-02T07:18:17;9.36;114.55
71254;HTU21D;59019;47.638;18.966;2024-03-02T07:20:44;9.46;116.05
71254;HTU21D;59019;47.638;18.966;2024-03-02T07:23:10;9.46;114.63
71254;HTU21D;59019;47.638;18.966;2024-03-02T07:25:37;9.55;114.77
71254;HTU21D;59019;47.638;18.966;2024-03-02T07:28:03;9.62;113.70
71254;HTU21D;59019;47.638;18.966;2024-03-02T07:30:30;9.91;6.38
71254;HTU21D;59019;47.638;18.966;2024-03-02T07:32:57;10.19;118.40
71254;HTU21D;59019;47.638;18.966;2024-03-02T07:35:24;10.24;110.26
71254;HTU21D;59019;47.638;18.966;2024-03-02T07:37:54;10.27;109.72
71254;HTU21D;59019;47.638;18.966;2024-03-02T07:40:21;10.36;108.49
71254;HTU21D;59019;47.638;18.966;2024-03-02T07:42:47;10.33;107.83
71254;HTU21D;59019;47.638;18.966;2024-03-02T07:45:14;10.35;107.54
71254;HTU21D;59019;47.638;18.966;2024-03-02T07:47:41;10.40;106.40
71254;HTU21D;59019;47.638;18.966;2024-03-02T07:50:08;10.36;107.44
71254;HTU21D;59019;47.638;18.966;2024-03-02T07:52:34;10.37;108.33
71254;HTU21D;59019;47.638;18.966;2024-03-02T07:55:01;10.46;113.83
71254;HTU21D;59019;47.638;18.966;2024-03-02T07:57:28;10.48;107.49
71254;HTU21D;59019;47.638;18.966;2024-03-02T07:59:54;10.53;108.89
71254;HTU21D;59019;47.638;18.966;2024-03-02T08:02:21;10.58;109.66
71254;HTU21D;59019;47.638;18.966;2024-03-02T08:04:47;10.50;107.48
71254;HTU21D;59019;47.638;18.966;2024-03-02T08:07:14;10.63;107.69
71254;HTU21D;59019;47.638;18.966;2024-03-02T08:09:40;10.70;106.50
71254;HTU21D;59019;47.638;18.966;2024-03-02T08:12:07;10.67;105.12
71254;HTU21D;59019;47.638;18.966;2024-03-02T08:14:34;10.52;104.43
71254;HTU21D;59019;47.638;18.966;2024-03-02T08:17:01;10.48;106.07
71254;HTU21D;59019;47.638;18.966;2024-03-02T08:19:27;10.36;104.39
71254;HTU21D;59019;47.638;18.966;2024-03-02T08:21:53;10.42;106.16
71254;HTU21D;59019;47.638;18.966;2024-03-02T08:24:20;10.56;107.20
71254;HTU21D;59019;47.638;18.966;2024-03-02T08:26:46;10.62;106.19
71254;HTU21D;59019;47.638;18.966;2024-03-02T08:29:12;10.69;104.80
71254;HTU21D;59019;47.638;18.966;2024-03-02T08:31:39;10.65;104.25
71254;HTU21D;59019;47.638;18.966;2024-03-02T08:34:05;10.58;103.89
71254;HTU21D;59019;47.638;18.966;2024-03-02T08:36:32;10.58;104.23
71254;HTU21D;59019;47.638;18.966;2024-03-02T08:38:58;10.63;105.40
71254;HTU21D;59019;47.638;18.966;2024-03-02T08:41:24;10.55;103.87
71254;HTU21D;59019;47.638;18.966;2024-03-02T08:43:51;10.44;104.48
71254;HTU21D;59019;47.638;18.966;2024-03-02T08:46:17;10.55;106.46
71254;HTU21D;59019;47.638;18.966;2024-03-02T08:48:44;10.53;107.46
71254;HTU21D;59019;47.638;18.966;2024-03-02T08:51:10;10.54;106.68
71254;HTU21D;59019;47.638;18.966;2024-03-02T08:53:37;10.73;111.90
71254;HTU21D;59019;47.638;18.966;2024-03-02T08:56:04;10.85;110.78
71254;HTU21D;59019;47.638;18.966;2024-03-02T08:58:31;11.00;108.69
71254;HTU21D;59019;47.638;18.966;2024-03-02T09:00:58;11.03;107.72
71254;HTU21D;59019;47.638;18.966;2024-03-02T09:03:24;10.93;104.50
71254;HTU21D;59019;47.638;18.966;2024-03-02T09:05:50;10.77;103.99
71254;HTU21D;59019;47.638;18.966;2024-03-02T09:08:17;10.87;106.85
71254;HTU21D;59019;47.638;18.966;2024-03-02T09:10:43;10.88;105.05
71254;HTU21D;59019;47.638;18.966;2024-03-02T09:13:10;11.02;105.14
71254;HTU21D;59019;47.638;18.966;2024-03-02T09:15:37;11.03;103.52
71254;HTU21D;59019;47.638;18.966;2024-03-02T09:18:05;10.75;103.36
71254;HTU21D;59019;47.638;18.966;2024-03-02T09:20:32;10.86;105.59
71254;HTU21D;59019;47.638;18.966;2024-03-02T09:22:59;10.93;105.50
71254;HTU21D;59019;47.638;18.966;2024-03-02T09:25:25;10.89;103.72
71254;HTU21D;59019;47.638;18.966;2024-03-02T09:27:52;10.87;104.21
71254;HTU21D;59019;47.638;18.966;2024-03-02T09:30:18;10.74;105.93
71254;HTU21D;59019;47.638;18.966;2024-03-02T09:32:44;10.89;106.75
71254;HTU21D;59019;47.638;18.966;2024-03-02T09:35:10;10.82;105.25
71254;HTU21D;59019;47.638;18.966;2024-03-02T09:37:38;10.81;104.71
71254;HTU21D;59019;47.638;18.966;2024-03-02T09:40:04;10.80;105.59
71254;HTU21D;59019;47.638;18.966;2024-03-02T09:42:32;10.82;104.62
71254;HTU21D;59019;47.638;18.966;2024-03-02T09:44:59;10.72;104.46
71254;HTU21D;59019;47.638;18.966;2024-03-02T09:47:26;11.11;117.02
71254;HTU21D;59019;47.638;18.966;2024-03-02T09:49:52;10.94;107.78
71254;HTU21D;59019;47.638;18.966;2024-03-02T09:52:19;10.93;108.46
71254;HTU21D;59019;47.638;18.966;2024-03-02T09:54:47;11.25;107.12
71254;HTU21D;59019;47.638;18.966;2024-03-02T09:57:15;11.25;104.61
71254;HTU21D;59019;47.638;18.966;2024-03-02T09:59:45;11.18;104.48
71254;HTU21D;59019;47.638;18.966;2024-03-02T10:02:11;11.16;105.38
71254;HTU21D;59019;47.638;18.966;2024-03-02T10:04:36;11.00;103.44
71254;HTU21D;59019;47.638;18.966;2024-03-02T10:07:09;10.87;103.86
71254;HTU21D;59019;47.638;18.966;2024-03-02T10:09:36;10.74;104.95
71254;HTU21D;59019;47.638;18.966;2024-03-02T10:12:07;10.66;105.07
71254;HTU21D;59019;47.638;18.966;2024-03-02T10:14:34;10.56;105.93
71254;HTU21D;59019;47.638;18.966;2024-03-02T10:17:05;10.57;106.17
71254;HTU21D;59019;47.638;18.966;2024-03-02T10:19:32;10.52;106.11
71254;HTU21D;59019;47.638;18.966;2024-03-02T10:22:01;10.49;107.69
71254;HTU21D;59019;47.638;18.966;2024-03-02T10:24:35;10.14;108.91
71254;HTU21D;59019;47.638;18.966;2024-03-02T10:27:07;10.19;108.39
71254;HTU21D;59019;47.638;18.966;2024-03-02T10:29:38;10.22;110.02
71254;HTU21D;59019;47.638;18.966;2024-03-02T10:32:05;10.27;109.15
71254;HTU21D;59019;47.638;18.966;2024-03-02T10:34:32;10.27;108.11
71254;HTU21D;59019;47.638;18.966;2024-03-02T10:36:58;10.14;107.71
71254;HTU21D;59019;47.638;18.966;2024-03-02T10:39:25;10.26;108.36
71254;HTU21D;59019;47.638;18.966;2024-03-02T10:41:52;10.21;109.07
71254;HTU21D;59019;47.638;18.966;2024-03-02T10:44:19;10.27;109.92
71254;HTU21D;59019;47.638;18.966;2024-03-02T10:46:47;10.31;109.07
71254;HTU21D;59019;47.638;18.966;2024-03-02T10:49:17;10.25;108.30
71254;HTU21D;59019;47.638;18.966;2024-03-02T10:51:43;10.26;109.74
71254;HTU21D;59019;47.638;18.966;2024-03-02T10:54:10;10.30;110.51
71254;HTU21D;59019;47.638;18.966;2024-03-02T10:56:43;10.34;112.43
71254;HTU21D;59019;47.638;18.966;2024-03-02T11:02:00;10.39;112.46
71254;HTU21D;59019;47.638;18.966;2024-03-02T11:04:29;10.35;110.05
71254;HTU21D;59019;47.638;18.966;2024-03-02T11:07:02;10.22;108.37
71254;HTU21D;59019;47.638;18.966;2024-03-02T11:09:34;9.94;111.34
71254;HTU21D;59019;47.638;18.966;2024-03-02T11:12:15;10.03;109.55
71254;HTU21D;59019;47.638;18.966;2024-03-02T11:14:45;10.07;108.31
71254;HTU21D;59019;47.638;18.966;2024-03-02T11:17:13;10.14;107.99
71254;HTU21D;59019;47.638;18.966;2024-03-02T11:19:41;10.38;108.88
71254;HTU21D;59019;47.638;18.966;2024-03-02T11:22:10;10.55;108.97
71254;HTU21D;59019;47.638;18.966;2024-03-02T11:24:36;10.65;107.43
71254;HTU21D;59019;47.638;18.966;2024-03-02T11:27:04;10.68;105.81
71254;HTU21D;59019;47.638;18.966;2024-03-02T11:34:51;10.67;105.50
71254;HTU21D;59019;47.638;18.966;2024-03-02T11:37:19;10.67;105.63
71254;HTU21D;59019;47.638;18.966;2024-03-02T11:39:49;10.71;106.53
71254;HTU21D;59019;47.638;18.966;2024-03-02T11:42:16;10.80;106.86
71254;HTU21D;59019;47.638;18.966;2024-03-02T11:44:46;10.85;106.24
71254;HTU21D;59019;47.638;18.966;2024-03-02T11:47:13;10.92;104.97
71254;HTU21D;59019;47.638;18.966;2024-03-02T11:50:00;10.79;104.60
71254;HTU21D;59019;47.638;18.966;2024-03-02T11:52:27;10.83;104.82
71254;HTU21D;59019;47.638;18.966;2024-03-02T11:54:57;10.84;105.36
71254;HTU21D;59019;47.638;18.966;2024-03-02T11:57:28;10.79;105.56
71254;HTU21D;59019;47.638;18.966;2024-03-02T11:59:57;10.80;105.79
71254;HTU21D;59019;47.638;18.966;2024-03-02T12:02:25;10.77;104.61
71254;HTU21D;59019;47.638;18.966;2024-03-02T12:04:52;10.71;106.98
71254;HTU21D;59019;47.638;18.966;2024-03-02T12:07:23;10.80;108.66
71254;HTU21D;59019;47.638;18.966;2024-03-02T12:10:01;10.85;108.73
71254;HTU21D;59019;47.638;18.966;2024-03-02T12:12:27;10.83;107.58
71254;HTU21D;59019;47.638;18.966;2024-03-02T12:14:54;10.88;106.70
71254;HTU21D;59019;47.638;18.966;2024-03-02T12:17:22;10.86;105.96
71254;HTU21D;59019;47.638;18.966;2024-03-02T12:19:48;10.92;105.71
71254;HTU21D;59019;47.638;18.966;2024-03-02T12:22:14;10.96;105.83
71254;HTU21D;59019;47.638;18.966;2024-03-02T12:24:41;11.01;105.29
71254;HTU21D;59019;47.638;18.966;2024-03-02T12:27:12;11.05;105.48
71254;HTU21D;59019;47.638;18.966;2024-03-02T12:29:38;10.96;105.29
71254;HTU21D;59019;47.638;18.966;2024-03-02T12:32:06;10.94;103.97
71254;HTU21D;59019;47.638;18.966;2024-03-02T12:34:32;10.94;103.76
71254;HTU21D;59019;47.638;18.966;2024-03-02T12:36:58;10.86;104.59
71254;HTU21D;59019;47.638;18.966;2024-03-02T12:39:24;10.90;105.17
71254;HTU21D;59019;47.638;18.966;2024-03-02T12:41:51;10.94;104.47
71254;HTU21D;59019;47.638;18.966;2024-03-02T12:44:20;10.97;105.07
71254;HTU21D;59019;47.638;18.966;2024-03-02T12:46:46;10.97;104.78
71254;HTU21D;59019;47.638;18.966;2024-03-02T12:49:14;11.01;105.72
71254;HTU21D;59019;47.638;18.966;2024-03-02T12:51:44;11.14;105.72
71254;HTU21D;59019;47.638;18.966;2024-03-02T12:54:13;11.11;104.29
71254;HTU21D;59019;47.638;18.966;2024-03-02T12:56:41;10.92;104.15
71254;HTU21D;59019;47.638;18.966;2024-03-02T12:59:19;10.95;105.24
71254;HTU21D;59019;47.638;18.966;2024-03-02T13:01:51;10.84;105.02
71254;HTU21D;59019;47.638;18.966;2024-03-02T13:04:28;10.75;105.56
71254;HTU21D;59019;47.638;18.966;2024-03-02T13:07:30;10.72;105.89
71254;HTU21D;59019;47.638;18.966;2024-03-02T13:09:56;10.71;106.34
71254;HTU21D;59019;47.638;18.966;2024-03-02T13:12:24;10.77;106.66
71254;HTU21D;59019;47.638;18.966;2024-03-02T13:14:51;10.75;106.44
71254;HTU21D;59019;47.638;18.966;2024-03-02T13:17:37;10.62;106.47
71254;HTU21D;59019;47.638;18.966;2024-03-02T13:20:05;10.58;107.77
71254;HTU21D;59019;47.638;18.966;2024-03-02T13:22:36;10.68;108.81
71254;HTU21D;59019;47.638;18.966;2024-03-02T13:25:03;10.69;110.63
71254;HTU21D;59019;47.638;18.966;2024-03-02T13:27:31;10.68;110.00
71254;HTU21D;59019;47.638;18.966;2024-03-02T13:29:57;10.68;110.12
71254;HTU21D;59019;47.638;18.966;2024-03-02T13:32:24;10.73;110.88
71254;HTU21D;59019;47.638;18.966;2024-03-02T13:34:51;10.79;111.01
71254;HTU21D;59019;47.638;18.966;2024-03-02T13:37:21;10.79;110.96
71254;HTU21D;59019;47.638;18.966;2024-03-02T13:39:48;10.71;109.98
71254;HTU21D;59019;47.638;18.966;2024-03-02T13:42:14;10.67;108.82
71254;HTU21D;59019;47.638;18.966;2024-03-02T13:44:43;10.52;107.27
71254;HTU21D;59019;47.638;18.966;2024-03-02T13:47:13;10.54;108.44
71254;HTU21D;59019;47.638;18.966;2024-03-02T13:49:39;10.51;108.31
71254;HTU21D;59019;47.638;18.966;2024-03-02T13:52:09;10.50;108.07
71254;HTU21D;59019;47.638;18.966;2024-03-02T13:54:37;10.40;109.05
71254;HTU21D;59019;47.638;18.966;2024-03-02T13:57:04;10.34;108.87
71254;HTU21D;59019;47.638;18.966;2024-03-02T13:59:31;10.28;109.00
71254;HTU21D;59019;47.638;18.966;2024-03-02T14:01:57;10.20;109.14
71254;HTU21D;59019;47.638;18.966;2024-03-02T14:04:24;10.07;110.46
71254;HTU21D;59019;47.638;18.966;2024-03-02T14:06:50;10.04;109.76
71254;HTU21D;59019;47.638;18.966;2024-03-02T14:09:21;10.06;110.08
71254;HTU21D;59019;47.638;18.966;2024-03-02T14:11:50;9.94;109.81
71254;HTU21D;59019;47.638;18.966;2024-03-02T14:14:16;9.96;109.75
71254;HTU21D;59019;47.638;18.966;2024-03-02T14:16:43;9.99;109.52
71254;HTU21D;59019;47.638;18.966;2024-03-02T14:19:11;10.04;109.91
71254;HTU21D;59019;47.638;18.966;2024-03-02T14:21:38;10.09;110.68
71254;HTU21D;59019;47.638;18.966;2024-03-02T14:24:05;10.18;109.89
71254;HTU21D;59019;47.638;18.966;2024-03-02T14:26:33;10.16;111.00
71254;HTU21D;59019;47.638;18.966;2024-03-02T14:29:03;10.21;112.97
71254;HTU21D;59019;47.638;18.966;2024-03-02T14:31:29;10.26;111.61
71254;HTU21D;59019;47.638;18.966;2024-03-02T14:33:57;10.15;111.58
71254;HTU21D;59019;47.638;18.966;2024-03-02T14:36:23;10.00;110.17
71254;HTU21D;59019;47.638;18.966;2024-03-02T14:38:49;10.00;109.93
71254;HTU21D;59019;47.638;18.966;2024-03-02T14:41:15;10.07;110.80
71254;HTU21D;59019;47.638;18.966;2024-03-02T14:43:42;10.12;109.37
71254;HTU21D;59019;47.638;18.966;2024-03-02T14:46:08;10.16;109.00
71254;HTU21D;59019;47.638;18.966;2024-03-02T14:48:36;10.07;108.73
71254;HTU21D;59019;47.638;18.966;2024-03-02T14:51:02;10.10;108.20
71254;HTU21D;59019;47.638;18.966;2024-03-02T14:53:29;10.10;108.47
71254;HTU21D;59019;47.638;18.966;2024-03-02T14:55:55;10.10;108.32
71254;HTU21D;59019;47.638;18.966;2024-03-02T14:58:21;10.05;108.17
71254;HTU21D;59019;47.638;18.966;2024-03-02T15:00:48;10.07;109.44
71254;HTU21D;59019;47.638;18.966;2024-03-02T15:03:15;9.98;107.94
71254;HTU21D;59019;47.638;18.966;2024-03-02T15:05:41;9.91;106.95
71254;HTU21D;59019;47.638;18.966;2024-03-02T15:08:07;9.92;107.11
71254;HTU21D;59019;47.638;18.966;2024-03-02T15:10:34;9.95;108.36